sensor_id;sensor_type;location;lat;lon;timestamp;P1;durP1;ratioP1;P2;durP2;ratioP2
44110;SDS011;29774;52.664;5.074;2023-03-23T00:01:29;3.13;;;2.50;;
44110;SDS011;29774;52.664;5.074;2023-03-23T00:03:56;5.38;;;3.60;;
44110;SDS011;29774;52.664;5.074;2023-03-23T00:06:23;3.33;;;2.90;;
44110;SDS011;29774;52.664;5.074;2023-03-23T00:08:51;4.05;;;2.78;;
44110;SDS011;29774;52.664;5.074;2023-03-23T00:11:23;4.75;;;2.85;;
44110;SDS011;29774;52.664;5.074;2023-03-23T00:13:51;3.83;;;3.20;;
44110;SDS011;29774;52.664;5.074;2023-03-23T00:16:21;4.18;;;2.67;;
44110;SDS011;29774;52.664;5.074;2023-03-23T00:18:56;8.32;;;4.35;;
44110;SDS011;29774;52.664;5.074;2023-03-23T00:21:28;6.25;;;2.65;;
44110;SDS011;29774;52.664;5.074;2023-03-23T00:24:03;3.72;;;3.20;;
44110;SDS011;29774;52.664;5.074;2023-03-23T00:26:36;5.72;;;3.42;;
44110;SDS011;29774;52.664;5.074;2023-03-23T00:29:05;4.82;;;3.30;;
44110;SDS011;29774;52.664;5.074;2023-03-23T00:31:32;4.22;;;2.42;;
44110;SDS011;29774;52.664;5.074;2023-03-23T00:34:00;3.83;;;2.47;;
44110;SDS011;29774;52.664;5.074;2023-03-23T00:36:33;4.90;;;2.80;;
44110;SDS011;29774;52.664;5.074;2023-03-23T00:39:03;3.85;;;2.88;;
44110;SDS011;29774;52.664;5.074;2023-03-23T00:41:29;3.83;;;2.42;;
44110;SDS011;29774;52.664;5.074;2023-03-23T00:43:56;2.85;;;2.28;;
44110;SDS011;29774;52.664;5.074;2023-03-23T00:46:23;5.25;;;2.60;;
44110;SDS011;29774;52.664;5.074;2023-03-23T00:48:49;3.60;;;2.42;;
44110;SDS011;29774;52.664;5.074;2023-03-23T00:51:15;3.60;;;2.60;;
44110;SDS011;29774;52.664;5.074;2023-03-23T00:53:42;3.53;;;2.20;;
44110;SDS011;29774;52.664;5.074;2023-03-23T00:56:08;6.13;;;2.70;;
44110;SDS011;29774;52.664;5.074;2023-03-23T00:58:34;2.92;;;1.95;;
44110;SDS011;29774;52.664;5.074;2023-03-23T01:01:00;2.30;;;2.05;;
44110;SDS011;29774;52.664;5.074;2023-03-23T01:03:27;2.30;;;2.00;;
44110;SDS011;29774;52.664;5.074;2023-03-23T01:05:53;2.72;;;2.20;;
44110;SDS011;29774;52.664;5.074;2023-03-23T01:08:20;3.10;;;1.80;;
44110;SDS011;29774;52.664;5.074;2023-03-23T01:10:46;3.65;;;2.10;;
44110;SDS011;29774;52.664;5.074;2023-03-23T01:13:12;2.10;;;1.45;;
44110;SDS011;29774;52.664;5.074;2023-03-23T01:15:38;4.32;;;2.75;;
44110;SDS011;29774;52.664;5.074;2023-03-23T01:18:04;3.20;;;1.50;;
44110;SDS011;29774;52.664;5.074;2023-03-23T01:20:31;3.35;;;2.40;;
44110;SDS011;29774;52.664;5.074;2023-03-23T01:22:58;3.33;;;2.00;;
44110;SDS011;29774;52.664;5.074;2023-03-23T01:25:26;2.65;;;1.52;;
44110;SDS011;29774;52.664;5.074;2023-03-23T01:27:57;2.13;;;1.58;;
44110;SDS011;29774;52.664;5.074;2023-03-23T01:30:23;3.42;;;1.75;;
44110;SDS011;29774;52.664;5.074;2023-03-23T01:32:49;3.60;;;1.90;;
44110;SDS011;29774;52.664;5.074;2023-03-23T01:35:15;2.08;;;1.85;;
44110;SDS011;29774;52.664;5.074;2023-03-23T01:37:41;4.63;;;1.73;;
44110;SDS011;29774;52.664;5.074;2023-03-23T01:40:07;3.80;;;1.63;;
44110;SDS011;29774;52.664;5.074;2023-03-23T01:42:35;2.33;;;1.70;;
44110;SDS011;29774;52.664;5.074;2023-03-23T01:47:51;1.80;;;1.40;;
44110;SDS011;29774;52.664;5.074;2023-03-23T01:50:21;3.75;;;1.73;;
44110;SDS011;29774;52.664;5.074;2023-03-23T01:52:49;3.60;;;1.75;;
44110;SDS011;29774;52.664;5.074;2023-03-23T01:55:17;2.25;;;1.48;;
44110;SDS011;29774;52.664;5.074;2023-03-23T01:57:44;2.45;;;1.60;;
44110;SDS011;29774;52.664;5.074;2023-03-23T02:00:11;2.65;;;1.50;;
44110;SDS011;29774;52.664;5.074;2023-03-23T02:02:44;4.75;;;1.63;;
44110;SDS011;29774;52.664;5.074;2023-03-23T02:05:17;3.80;;;1.52;;
44110;SDS011;29774;52.664;5.074;2023-03-23T02:07:48;2.38;;;1.20;;
44110;SDS011;29774;52.664;5.074;2023-03-23T02:10:15;1.58;;;1.00;;
44110;SDS011;29774;52.664;5.074;2023-03-23T02:12:40;3.58;;;1.48;;
44110;SDS011;29774;52.664;5.074;2023-03-23T02:15:06;2.10;;;1.40;;
44110;SDS011;29774;52.664;5.074;2023-03-23T02:23:30;3.92;;;1.67;;
44110;SDS011;29774;52.664;5.074;2023-03-23T02:36:46;2.42;;;1.00;;
44110;SDS011;29774;52.664;5.074;2023-03-23T02:39:22;2.08;;;1.10;;
44110;SDS011;29774;52.664;5.074;2023-03-23T02:42:09;2.50;;;1.50;;
44110;SDS011;29774;52.664;5.074;2023-03-23T02:44:39;3.92;;;2.22;;
44110;SDS011;29774;52.664;5.074;2023-03-23T02:47:09;2.05;;;1.50;;
44110;SDS011;29774;52.664;5.074;2023-03-23T02:49:39;3.08;;;2.03;;
44110;SDS011;29774;52.664;5.074;2023-03-23T02:52:10;5.05;;;1.75;;
44110;SDS011;29774;52.664;5.074;2023-03-23T02:54:41;4.63;;;2.45;;
44110;SDS011;29774;52.664;5.074;2023-03-23T02:57:09;2.20;;;1.45;;
44110;SDS011;29774;52.664;5.074;2023-03-23T02:59:35;2.95;;;1.40;;
44110;SDS011;29774;52.664;5.074;2023-03-23T03:02:03;3.75;;;1.50;;
44110;SDS011;29774;52.664;5.074;2023-03-23T03:04:32;3.10;;;1.55;;
44110;SDS011;29774;52.664;5.074;2023-03-23T03:09:50;3.85;;;1.17;;
44110;SDS011;29774;52.664;5.074;2023-03-23T03:15:32;4.43;;;1.52;;
44110;SDS011;29774;52.664;5.074;2023-03-23T03:20:43;1.88;;;1.08;;
44110;SDS011;29774;52.664;5.074;2023-03-23T03:23:13;2.38;;;1.10;;
44110;SDS011;29774;52.664;5.074;2023-03-23T03:25:41;4.38;;;1.35;;
44110;SDS011;29774;52.664;5.074;2023-03-23T03:28:12;5.05;;;1.58;;
44110;SDS011;29774;52.664;5.074;2023-03-23T03:30:46;1.85;;;1.00;;
44110;SDS011;29774;52.664;5.074;2023-03-23T03:33:25;2.40;;;1.02;;
44110;SDS011;29774;52.664;5.074;2023-03-23T03:35:55;1.63;;;1.50;;
44110;SDS011;29774;52.664;5.074;2023-03-23T03:38:23;2.00;;;1.10;;
44110;SDS011;29774;52.664;5.074;2023-03-23T03:40:50;4.10;;;1.10;;
44110;SDS011;29774;52.664;5.074;2023-03-23T03:43:16;3.90;;;1.05;;
44110;SDS011;29774;52.664;5.074;2023-03-23T03:45:42;4.82;;;1.75;;
44110;SDS011;29774;52.664;5.074;2023-03-23T03:48:07;1.33;;;0.90;;
44110;SDS011;29774;52.664;5.074;2023-03-23T03:50:33;1.40;;;0.80;;
44110;SDS011;29774;52.664;5.074;2023-03-23T03:52:59;3.35;;;1.10;;
44110;SDS011;29774;52.664;5.074;2023-03-23T03:55:24;3.72;;;1.60;;
44110;SDS011;29774;52.664;5.074;2023-03-23T03:57:52;2.95;;;0.90;;
44110;SDS011;29774;52.664;5.074;2023-03-23T04:00:20;6.20;;;1.20;;
44110;SDS011;29774;52.664;5.074;2023-03-23T04:02:47;4.13;;;1.15;;
44110;SDS011;29774;52.664;5.074;2023-03-23T04:05:16;1.65;;;0.85;;
44110;SDS011;29774;52.664;5.074;2023-03-23T04:07:43;4.00;;;1.20;;
44110;SDS011;29774;52.664;5.074;2023-03-23T04:10:09;4.60;;;0.90;;
44110;SDS011;29774;52.664;5.074;2023-03-23T04:12:36;3.65;;;1.38;;
44110;SDS011;29774;52.664;5.074;2023-03-23T04:15:03;5.72;;;1.30;;
44110;SDS011;29774;52.664;5.074;2023-03-23T04:17:29;4.57;;;1.20;;
44110;SDS011;29774;52.664;5.074;2023-03-23T04:19:55;2.95;;;1.02;;
44110;SDS011;29774;52.664;5.074;2023-03-23T04:22:32;3.85;;;1.42;;
44110;SDS011;29774;52.664;5.074;2023-03-23T04:24:58;4.30;;;1.33;;
44110;SDS011;29774;52.664;5.074;2023-03-23T04:27:26;3.15;;;1.27;;
44110;SDS011;29774;52.664;5.074;2023-03-23T04:29:53;3.08;;;1.40;;
44110;SDS011;29774;52.664;5.074;2023-03-23T04:32:21;3.30;;;0.98;;
44110;SDS011;29774;52.664;5.074;2023-03-23T04:34:47;4.63;;;1.38;;
44110;SDS011;29774;52.664;5.074;2023-03-23T04:37:13;4.13;;;1.08;;
44110;SDS011;29774;52.664;5.074;2023-03-23T04:39:39;4.45;;;1.17;;
44110;SDS011;29774;52.664;5.074;2023-03-23T04:42:06;2.60;;;1.10;;
44110;SDS011;29774;52.664;5.074;2023-03-23T04:44:32;2.58;;;1.15;;
44110;SDS011;29774;52.664;5.074;2023-03-23T04:47:00;3.33;;;1.38;;
44110;SDS011;29774;52.664;5.074;2023-03-23T04:49:26;4.88;;;1.42;;
44110;SDS011;29774;52.664;5.074;2023-03-23T04:51:52;3.03;;;1.25;;
44110;SDS011;29774;52.664;5.074;2023-03-23T04:54:17;3.58;;;1.60;;
44110;SDS011;29774;52.664;5.074;2023-03-23T04:56:43;4.75;;;1.30;;
44110;SDS011;29774;52.664;5.074;2023-03-23T04:59:09;5.43;;;1.33;;
44110;SDS011;29774;52.664;5.074;2023-03-23T05:01:35;4.40;;;1.60;;
44110;SDS011;29774;52.664;5.074;2023-03-23T05:04:03;6.40;;;1.40;;
44110;SDS011;29774;52.664;5.074;2023-03-23T05:06:29;9.02;;;1.40;;
44110;SDS011;29774;52.664;5.074;2023-03-23T05:08:54;4.60;;;1.30;;
44110;SDS011;29774;52.664;5.074;2023-03-23T05:11:20;3.78;;;1.17;;
44110;SDS011;29774;52.664;5.074;2023-03-23T05:13:46;2.38;;;1.13;;
44110;SDS011;29774;52.664;5.074;2023-03-23T05:16:11;8.60;;;1.88;;
44110;SDS011;29774;52.664;5.074;2023-03-23T05:18:37;4.13;;;1.10;;
44110;SDS011;29774;52.664;5.074;2023-03-23T05:21:03;4.55;;;1.30;;
44110;SDS011;29774;52.664;5.074;2023-03-23T05:23:29;4.88;;;1.50;;
44110;SDS011;29774;52.664;5.074;2023-03-23T05:25:58;3.67;;;1.65;;
44110;SDS011;29774;52.664;5.074;2023-03-23T05:28:27;3.78;;;1.65;;
44110;SDS011;29774;52.664;5.074;2023-03-23T05:30:53;9.90;;;1.90;;
44110;SDS011;29774;52.664;5.074;2023-03-23T05:33:20;9.77;;;2.50;;
44110;SDS011;29774;52.664;5.074;2023-03-23T05:35:46;8.32;;;2.35;;
44110;SDS011;29774;52.664;5.074;2023-03-23T05:38:12;6.43;;;1.50;;
44110;SDS011;29774;52.664;5.074;2023-03-23T05:40:39;12.95;;;2.63;;
44110;SDS011;29774;52.664;5.074;2023-03-23T05:43:06;12.02;;;1.85;;
44110;SDS011;29774;52.664;5.074;2023-03-23T05:45:32;9.35;;;2.25;;
44110;SDS011;29774;52.664;5.074;2023-03-23T05:47:58;13.95;;;2.45;;
44110;SDS011;29774;52.664;5.074;2023-03-23T05:50:25;7.57;;;1.70;;
44110;SDS011;29774;52.664;5.074;2023-03-23T05:52:51;6.70;;;2.13;;
44110;SDS011;29774;52.664;5.074;2023-03-23T05:55:16;8.70;;;1.90;;
44110;SDS011;29774;52.664;5.074;2023-03-23T05:57:42;4.15;;;1.30;;
44110;SDS011;29774;52.664;5.074;2023-03-23T06:00:08;4.88;;;1.50;;
44110;SDS011;29774;52.664;5.074;2023-03-23T06:02:36;10.75;;;2.20;;
44110;SDS011;29774;52.664;5.074;2023-03-23T06:05:02;6.22;;;1.67;;
44110;SDS011;29774;52.664;5.074;2023-03-23T06:07:28;3.70;;;1.25;;
44110;SDS011;29774;52.664;5.074;2023-03-23T06:09:53;8.48;;;1.85;;
44110;SDS011;29774;52.664;5.074;2023-03-23T06:12:19;5.30;;;1.73;;
44110;SDS011;29774;52.664;5.074;2023-03-23T06:14:45;8.38;;;1.98;;
44110;SDS011;29774;52.664;5.074;2023-03-23T06:17:13;8.73;;;1.88;;
44110;SDS011;29774;52.664;5.074;2023-03-23T06:19:42;6.18;;;1.85;;
44110;SDS011;29774;52.664;5.074;2023-03-23T06:22:09;6.65;;;1.85;;
44110;SDS011;29774;52.664;5.074;2023-03-23T06:24:35;7.20;;;1.92;;
44110;SDS011;29774;52.664;5.074;2023-03-23T06:27:01;6.00;;;2.13;;
44110;SDS011;29774;52.664;5.074;2023-03-23T06:29:26;7.57;;;1.75;;
44110;SDS011;29774;52.664;5.074;2023-03-23T06:31:55;8.07;;;1.88;;
44110;SDS011;29774;52.664;5.074;2023-03-23T06:34:23;6.88;;;1.85;;
44110;SDS011;29774;52.664;5.074;2023-03-23T06:36:49;5.05;;;1.50;;
44110;SDS011;29774;52.664;5.074;2023-03-23T06:39:15;9.60;;;2.40;;
44110;SDS011;29774;52.664;5.074;2023-03-23T06:41:41;8.98;;;2.05;;
44110;SDS011;29774;52.664;5.074;2023-03-23T06:44:06;15.80;;;2.42;;
44110;SDS011;29774;52.664;5.074;2023-03-23T06:46:33;9.38;;;2.33;;
44110;SDS011;29774;52.664;5.074;2023-03-23T06:48:59;8.38;;;2.38;;
44110;SDS011;29774;52.664;5.074;2023-03-23T06:51:25;10.13;;;1.83;;
44110;SDS011;29774;52.664;5.074;2023-03-23T06:53:50;12.15;;;3.13;;
44110;SDS011;29774;52.664;5.074;2023-03-23T06:56:16;16.30;;;3.75;;
44110;SDS011;29774;52.664;5.074;2023-03-23T06:58:41;26.95;;;4.72;;
44110;SDS011;29774;52.664;5.074;2023-03-23T07:01:08;9.27;;;2.50;;
44110;SDS011;29774;52.664;5.074;2023-03-23T07:03:34;15.35;;;3.28;;
44110;SDS011;29774;52.664;5.074;2023-03-23T07:06:01;12.18;;;2.75;;
44110;SDS011;29774;52.664;5.074;2023-03-23T07:08:28;18.13;;;3.35;;
44110;SDS011;29774;52.664;5.074;2023-03-23T07:10:54;12.20;;;2.90;;
44110;SDS011;29774;52.664;5.074;2023-03-23T07:13:21;8.35;;;2.15;;
44110;SDS011;29774;52.664;5.074;2023-03-23T07:15:47;10.90;;;2.88;;
44110;SDS011;29774;52.664;5.074;2023-03-23T07:18:14;12.88;;;3.10;;
44110;SDS011;29774;52.664;5.074;2023-03-23T07:20:40;16.17;;;3.22;;
44110;SDS011;29774;52.664;5.074;2023-03-23T07:23:06;10.73;;;3.05;;
44110;SDS011;29774;52.664;5.074;2023-03-23T07:25:32;14.82;;;3.05;;
44110;SDS011;29774;52.664;5.074;2023-03-23T07:27:59;13.82;;;2.83;;
44110;SDS011;29774;52.664;5.074;2023-03-23T07:30:26;7.10;;;2.60;;
44110;SDS011;29774;52.664;5.074;2023-03-23T07:32:52;13.90;;;3.08;;
44110;SDS011;29774;52.664;5.074;2023-03-23T07:35:18;19.80;;;4.70;;
44110;SDS011;29774;52.664;5.074;2023-03-23T07:37:44;16.02;;;3.22;;
44110;SDS011;29774;52.664;5.074;2023-03-23T07:40:10;10.57;;;3.50;;
44110;SDS011;29774;52.664;5.074;2023-03-23T07:42:43;10.27;;;3.05;;
44110;SDS011;29774;52.664;5.074;2023-03-23T07:45:11;10.73;;;2.58;;
44110;SDS011;29774;52.664;5.074;2023-03-23T07:47:38;10.50;;;3.13;;
44110;SDS011;29774;52.664;5.074;2023-03-23T07:50:04;14.10;;;4.10;;
44110;SDS011;29774;52.664;5.074;2023-03-23T07:52:31;11.50;;;2.38;;
44110;SDS011;29774;52.664;5.074;2023-03-23T07:54:58;10.23;;;2.80;;
44110;SDS011;29774;52.664;5.074;2023-03-23T07:57:24;14.32;;;3.28;;
44110;SDS011;29774;52.664;5.074;2023-03-23T07:59:49;8.05;;;2.42;;
44110;SDS011;29774;52.664;5.074;2023-03-23T08:02:15;10.00;;;2.20;;
44110;SDS011;29774;52.664;5.074;2023-03-23T08:04:41;11.27;;;2.45;;
44110;SDS011;29774;52.664;5.074;2023-03-23T08:07:07;9.45;;;3.00;;
44110;SDS011;29774;52.664;5.074;2023-03-23T08:09:33;20.10;;;4.78;;
44110;SDS011;29774;52.664;5.074;2023-03-23T08:11:58;10.50;;;3.03;;
44110;SDS011;29774;52.664;5.074;2023-03-23T08:14:24;6.85;;;2.60;;
44110;SDS011;29774;52.664;5.074;2023-03-23T08:16:52;8.48;;;2.70;;
44110;SDS011;29774;52.664;5.074;2023-03-23T08:19:20;8.43;;;2.20;;
44110;SDS011;29774;52.664;5.074;2023-03-23T08:21:46;7.40;;;2.30;;
44110;SDS011;29774;52.664;5.074;2023-03-23T08:24:12;5.97;;;2.15;;
44110;SDS011;29774;52.664;5.074;2023-03-23T08:26:38;6.72;;;2.17;;
44110;SDS011;29774;52.664;5.074;2023-03-23T08:29:04;7.05;;;2.00;;
44110;SDS011;29774;52.664;5.074;2023-03-23T08:31:30;10.57;;;2.58;;
44110;SDS011;29774;52.664;5.074;2023-03-23T08:33:59;8.48;;;2.20;;
44110;SDS011;29774;52.664;5.074;2023-03-23T08:36:25;8.20;;;2.42;;
44110;SDS011;29774;52.664;5.074;2023-03-23T08:38:52;8.13;;;2.15;;
44110;SDS011;29774;52.664;5.074;2023-03-23T08:41:18;5.88;;;1.65;;
44110;SDS011;29774;52.664;5.074;2023-03-23T08:43:44;15.55;;;2.85;;
44110;SDS011;29774;52.664;5.074;2023-03-23T08:46:11;8.82;;;1.95;;
44110;SDS011;29774;52.664;5.074;2023-03-23T08:48:37;10.60;;;2.38;;
44110;SDS011;29774;52.664;5.074;2023-03-23T08:51:04;6.78;;;1.63;;
44110;SDS011;29774;52.664;5.074;2023-03-23T08:53:30;8.48;;;2.35;;
44110;SDS011;29774;52.664;5.074;2023-03-23T08:55:56;9.30;;;1.80;;
44110;SDS011;29774;52.664;5.074;2023-03-23T08:58:28;6.03;;;1.90;;
44110;SDS011;29774;52.664;5.074;2023-03-23T09:00:54;7.28;;;1.95;;
44110;SDS011;29774;52.664;5.074;2023-03-23T09:03:19;6.80;;;1.88;;
44110;SDS011;29774;52.664;5.074;2023-03-23T09:05:45;9.35;;;2.13;;
44110;SDS011;29774;52.664;5.074;2023-03-23T09:08:11;6.32;;;1.92;;
44110;SDS011;29774;52.664;5.074;2023-03-23T09:10:38;6.75;;;1.83;;
44110;SDS011;29774;52.664;5.074;2023-03-23T09:13:04;8.23;;;2.00;;
44110;SDS011;29774;52.664;5.074;2023-03-23T09:15:30;7.07;;;2.00;;
44110;SDS011;29774;52.664;5.074;2023-03-23T09:17:56;5.47;;;1.50;;
44110;SDS011;29774;52.664;5.074;2023-03-23T09:20:23;3.80;;;1.48;;
44110;SDS011;29774;52.664;5.074;2023-03-23T09:22:51;5.43;;;1.90;;
44110;SDS011;29774;52.664;5.074;2023-03-23T09:25:18;6.90;;;1.90;;
44110;SDS011;29774;52.664;5.074;2023-03-23T09:27:47;8.80;;;1.98;;
44110;SDS011;29774;52.664;5.074;2023-03-23T09:30:17;7.18;;;1.70;;
44110;SDS011;29774;52.664;5.074;2023-03-23T09:32:44;7.88;;;3.00;;
44110;SDS011;29774;52.664;5.074;2023-03-23T09:35:10;7.00;;;1.55;;
44110;SDS011;29774;52.664;5.074;2023-03-23T09:37:41;3.90;;;1.63;;
44110;SDS011;29774;52.664;5.074;2023-03-23T09:40:16;11.82;;;2.00;;
44110;SDS011;29774;52.664;5.074;2023-03-23T09:45:36;1.48;;;0.93;;
44110;SDS011;29774;52.664;5.074;2023-03-23T09:51:02;7.40;;;1.67;;
44110;SDS011;29774;52.664;5.074;2023-03-23T09:56:42;5.63;;;1.58;;
44110;SDS011;29774;52.664;5.074;2023-03-23T09:59:11;5.95;;;1.58;;
44110;SDS011;29774;52.664;5.074;2023-03-23T10:02:18;7.93;;;1.67;;
44110;SDS011;29774;52.664;5.074;2023-03-23T10:04:52;3.75;;;1.10;;
44110;SDS011;29774;52.664;5.074;2023-03-23T10:07:25;3.90;;;1.60;;
44110;SDS011;29774;52.664;5.074;2023-03-23T10:10:08;3.88;;;1.17;;
44110;SDS011;29774;52.664;5.074;2023-03-23T10:15:33;6.25;;;1.25;;
44110;SDS011;29774;52.664;5.074;2023-03-23T10:18:17;4.53;;;1.50;;
44110;SDS011;29774;52.664;5.074;2023-03-23T10:26:13;5.05;;;1.10;;
44110;SDS011;29774;52.664;5.074;2023-03-23T10:29:08;5.75;;;1.48;;
44110;SDS011;29774;52.664;5.074;2023-03-23T10:31:42;3.13;;;1.10;;
44110;SDS011;29774;52.664;5.074;2023-03-23T10:34:17;5.05;;;1.55;;
44110;SDS011;29774;52.664;5.074;2023-03-23T10:37:16;3.33;;;1.25;;
44110;SDS011;29774;52.664;5.074;2023-03-23T10:39:54;5.70;;;1.40;;
44110;SDS011;29774;52.664;5.074;2023-03-23T10:42:22;9.77;;;2.22;;
44110;SDS011;29774;52.664;5.074;2023-03-23T10:44:58;8.57;;;1.80;;
44110;SDS011;29774;52.664;5.074;2023-03-23T10:47:25;6.22;;;1.63;;
44110;SDS011;29774;52.664;5.074;2023-03-23T10:49:56;5.70;;;1.48;;
44110;SDS011;29774;52.664;5.074;2023-03-23T10:57:28;7.10;;;1.15;;
44110;SDS011;29774;52.664;5.074;2023-03-23T11:00:39;5.78;;;1.85;;
44110;SDS011;29774;52.664;5.074;2023-03-23T11:03:35;4.00;;;1.15;;
44110;SDS011;29774;52.664;5.074;2023-03-23T11:08:21;5.80;;;1.52;;
44110;SDS011;29774;52.664;5.074;2023-03-23T11:13:15;3.97;;;1.30;;
44110;SDS011;29774;52.664;5.074;2023-03-23T11:15:43;5.97;;;1.35;;
44110;SDS011;29774;52.664;5.074;2023-03-23T11:20:49;3.35;;;1.40;;
44110;SDS011;29774;52.664;5.074;2023-03-23T11:25:54;3.40;;;1.00;;
44110;SDS011;29774;52.664;5.074;2023-03-23T11:28:25;6.13;;;2.08;;
44110;SDS011;29774;52.664;5.074;2023-03-23T11:30:53;7.38;;;1.73;;
44110;SDS011;29774;52.664;5.074;2023-03-23T11:33:20;3.45;;;1.00;;
44110;SDS011;29774;52.664;5.074;2023-03-23T11:35:50;7.00;;;1.77;;
44110;SDS011;29774;52.664;5.074;2023-03-23T11:38:19;3.45;;;1.30;;
44110;SDS011;29774;52.664;5.074;2023-03-23T11:40:48;4.45;;;1.33;;
44110;SDS011;29774;52.664;5.074;2023-03-23T11:43:23;4.78;;;1.25;;
44110;SDS011;29774;52.664;5.074;2023-03-23T11:48:57;6.00;;;2.20;;
44110;SDS011;29774;52.664;5.074;2023-03-23T11:56:38;5.80;;;1.58;;
44110;SDS011;29774;52.664;5.074;2023-03-23T11:59:10;6.55;;;1.77;;
44110;SDS011;29774;52.664;5.074;2023-03-23T12:04:35;6.72;;;1.70;;
44110;SDS011;29774;52.664;5.074;2023-03-23T12:07:25;4.53;;;1.33;;
44110;SDS011;29774;52.664;5.074;2023-03-23T12:10:05;6.47;;;1.20;;
44110;SDS011;29774;52.664;5.074;2023-03-23T12:21:12;5.32;;;1.48;;
44110;SDS011;29774;52.664;5.074;2023-03-23T12:24:00;5.20;;;1.40;;
44110;SDS011;29774;52.664;5.074;2023-03-23T12:26:46;4.15;;;1.13;;
44110;SDS011;29774;52.664;5.074;2023-03-23T12:37:34;3.47;;;1.42;;
44110;SDS011;29774;52.664;5.074;2023-03-23T12:40:27;5.13;;;1.10;;
44110;SDS011;29774;52.664;5.074;2023-03-23T12:43:21;7.05;;;1.75;;
44110;SDS011;29774;52.664;5.074;2023-03-23T12:54:26;4.53;;;1.55;;
44110;SDS011;29774;52.664;5.074;2023-03-23T12:57:27;3.80;;;1.13;;
44110;SDS011;29774;52.664;5.074;2023-03-23T13:00:06;5.18;;;1.40;;
44110;SDS011;29774;52.664;5.074;2023-03-23T13:07:50;8.75;;;1.52;;
44110;SDS011;29774;52.664;5.074;2023-03-23T13:13:39;7.82;;;1.77;;
44110;SDS011;29774;52.664;5.074;2023-03-23T13:16:16;6.38;;;1.75;;
44110;SDS011;29774;52.664;5.074;2023-03-23T13:22:04;4.93;;;1.17;;
44110;SDS011;29774;52.664;5.074;2023-03-23T13:24:37;3.00;;;0.90;;
44110;SDS011;29774;52.664;5.074;2023-03-23T13:27:07;3.95;;;1.00;;
44110;SDS011;29774;52.664;5.074;2023-03-23T13:29:36;3.42;;;0.77;;
44110;SDS011;29774;52.664;5.074;2023-03-23T13:32:11;4.93;;;1.17;;
44110;SDS011;29774;52.664;5.074;2023-03-23T13:34:41;2.22;;;0.75;;
44110;SDS011;29774;52.664;5.074;2023-03-23T13:42:22;3.75;;;1.27;;
44110;SDS011;29774;52.664;5.074;2023-03-23T13:50:00;4.32;;;1.33;;
44110;SDS011;29774;52.664;5.074;2023-03-23T13:52:46;4.22;;;1.10;;
44110;SDS011;29774;52.664;5.074;2023-03-23T13:57:54;2.47;;;0.98;;
44110;SDS011;29774;52.664;5.074;2023-03-23T14:00:31;6.32;;;1.50;;
44110;SDS011;29774;52.664;5.074;2023-03-23T14:05:48;3.20;;;0.90;;
44110;SDS011;29774;52.664;5.074;2023-03-23T14:10:58;4.38;;;1.17;;
44110;SDS011;29774;52.664;5.074;2023-03-23T14:13:31;2.25;;;0.77;;
44110;SDS011;29774;52.664;5.074;2023-03-23T14:16:04;4.70;;;1.40;;
44110;SDS011;29774;52.664;5.074;2023-03-23T14:18:40;4.28;;;1.35;;
44110;SDS011;29774;52.664;5.074;2023-03-23T14:21:13;2.55;;;1.00;;
44110;SDS011;29774;52.664;5.074;2023-03-23T14:23:41;4.75;;;1.20;;
44110;SDS011;29774;52.664;5.074;2023-03-23T14:26:11;9.40;;;2.40;;
44110;SDS011;29774;52.664;5.074;2023-03-23T14:28:43;6.65;;;2.63;;
44110;SDS011;29774;52.664;5.074;2023-03-23T14:31:14;6.03;;;1.42;;
44110;SDS011;29774;52.664;5.074;2023-03-23T14:33:44;14.48;;;2.78;;
44110;SDS011;29774;52.664;5.074;2023-03-23T14:36:10;2.20;;;0.80;;
44110;SDS011;29774;52.664;5.074;2023-03-23T14:38:36;5.55;;;1.48;;
44110;SDS011;29774;52.664;5.074;2023-03-23T14:41:04;4.63;;;1.30;;
44110;SDS011;29774;52.664;5.074;2023-03-23T14:43:31;4.75;;;1.60;;
44110;SDS011;29774;52.664;5.074;2023-03-23T14:45:59;3.35;;;1.33;;
44110;SDS011;29774;52.664;5.074;2023-03-23T14:48:27;4.32;;;1.42;;
44110;SDS011;29774;52.664;5.074;2023-03-23T14:55:59;5.93;;;1.92;;
44110;SDS011;29774;52.664;5.074;2023-03-23T14:58:31;3.35;;;1.02;;
44110;SDS011;29774;52.664;5.074;2023-03-23T15:01:02;4.88;;;1.67;;
44110;SDS011;29774;52.664;5.074;2023-03-23T15:03:35;15.38;;;2.65;;
44110;SDS011;29774;52.664;5.074;2023-03-23T15:06:07;4.28;;;1.25;;
44110;SDS011;29774;52.664;5.074;2023-03-23T15:08:39;6.85;;;1.80;;
44110;SDS011;29774;52.664;5.074;2023-03-23T15:11:26;8.70;;;1.70;;
44110;SDS011;29774;52.664;5.074;2023-03-23T15:14:02;8.02;;;1.65;;
44110;SDS011;29774;52.664;5.074;2023-03-23T15:16:46;5.35;;;1.38;;
44110;SDS011;29774;52.664;5.074;2023-03-23T15:19:17;6.85;;;1.63;;
44110;SDS011;29774;52.664;5.074;2023-03-23T15:21:53;3.28;;;1.20;;
44110;SDS011;29774;52.664;5.074;2023-03-23T15:24:27;2.58;;;1.38;;
44110;SDS011;29774;52.664;5.074;2023-03-23T15:27:04;4.15;;;1.20;;
44110;SDS011;29774;52.664;5.074;2023-03-23T15:29:45;4.07;;;1.40;;
44110;SDS011;29774;52.664;5.074;2023-03-23T15:32:11;6.47;;;1.73;;
44110;SDS011;29774;52.664;5.074;2023-03-23T15:34:37;5.43;;;1.55;;
44110;SDS011;29774;52.664;5.074;2023-03-23T15:37:06;3.85;;;1.17;;
44110;SDS011;29774;52.664;5.074;2023-03-23T15:39:43;6.13;;;1.73;;
44110;SDS011;29774;52.664;5.074;2023-03-23T15:42:30;5.47;;;1.67;;
44110;SDS011;29774;52.664;5.074;2023-03-23T15:45:16;2.38;;;1.00;;
44110;SDS011;29774;52.664;5.074;2023-03-23T15:47:48;3.67;;;1.25;;
44110;SDS011;29774;52.664;5.074;2023-03-23T15:50:16;3.10;;;1.40;;
44110;SDS011;29774;52.664;5.074;2023-03-23T15:52:42;8.60;;;2.17;;
44110;SDS011;29774;52.664;5.074;2023-03-23T15:55:18;10.60;;;2.53;;
44110;SDS011;29774;52.664;5.074;2023-03-23T15:57:49;6.10;;;1.90;;
44110;SDS011;29774;52.664;5.074;2023-03-23T16:00:16;10.55;;;2.55;;
44110;SDS011;29774;52.664;5.074;2023-03-23T16:02:45;7.93;;;2.30;;
44110;SDS011;29774;52.664;5.074;2023-03-23T16:05:12;4.03;;;1.33;;
44110;SDS011;29774;52.664;5.074;2023-03-23T16:07:38;7.90;;;1.20;;
44110;SDS011;29774;52.664;5.074;2023-03-23T16:10:04;5.38;;;1.27;;
44110;SDS011;29774;52.664;5.074;2023-03-23T16:12:31;5.90;;;1.67;;
44110;SDS011;29774;52.664;5.074;2023-03-23T16:14:57;5.88;;;1.48;;
44110;SDS011;29774;52.664;5.074;2023-03-23T16:17:23;2.95;;;1.38;;
44110;SDS011;29774;52.664;5.074;2023-03-23T16:19:49;6.82;;;1.60;;
44110;SDS011;29774;52.664;5.074;2023-03-23T16:22:15;5.47;;;1.35;;
44110;SDS011;29774;52.664;5.074;2023-03-23T16:24:41;9.85;;;2.05;;
44110;SDS011;29774;52.664;5.074;2023-03-23T16:27:08;3.80;;;1.02;;
44110;SDS011;29774;52.664;5.074;2023-03-23T16:29:35;5.07;;;1.83;;
44110;SDS011;29774;52.664;5.074;2023-03-23T16:32:00;4.32;;;1.73;;
44110;SDS011;29774;52.664;5.074;2023-03-23T16:34:26;7.55;;;1.85;;
44110;SDS011;29774;52.664;5.074;2023-03-23T16:36:54;7.55;;;1.83;;
44110;SDS011;29774;52.664;5.074;2023-03-23T16:39:20;5.53;;;1.20;;
44110;SDS011;29774;52.664;5.074;2023-03-23T16:41:47;5.70;;;1.52;;
44110;SDS011;29774;52.664;5.074;2023-03-23T16:44:12;10.27;;;2.15;;
44110;SDS011;29774;52.664;5.074;2023-03-23T16:46:38;6.68;;;1.55;;
44110;SDS011;29774;52.664;5.074;2023-03-23T16:49:03;6.85;;;1.67;;
44110;SDS011;29774;52.664;5.074;2023-03-23T16:51:29;12.07;;;2.63;;
44110;SDS011;29774;52.664;5.074;2023-03-23T16:53:55;9.48;;;2.83;;
44110;SDS011;29774;52.664;5.074;2023-03-23T16:56:21;5.05;;;1.60;;
44110;SDS011;29774;52.664;5.074;2023-03-23T16:58:46;6.75;;;1.60;;
44110;SDS011;29774;52.664;5.074;2023-03-23T17:01:12;5.05;;;1.70;;
44110;SDS011;29774;52.664;5.074;2023-03-23T17:03:38;6.45;;;1.80;;
44110;SDS011;29774;52.664;5.074;2023-03-23T17:06:03;7.68;;;2.95;;
44110;SDS011;29774;52.664;5.074;2023-03-23T17:08:29;7.68;;;2.30;;
44110;SDS011;29774;52.664;5.074;2023-03-23T17:10:55;7.43;;;1.75;;